sensor_id;sensor_type;location;lat;lon;timestamp;pressure;altitude;pressure_sealevel;temperature;humidity
25759;BME280;13604;52.496;13.456;2022-12-24T00:01:13;100021.72;;;4.72;100.00
25759;BME280;13604;52.496;13.456;2022-12-24T00:03:39;100027.25;;;4.65;100.00
25759;BME280;13604;52.496;13.456;2022-12-24T00:06:09;100025.28;;;4.70;100.00
25759;BME280;13604;52.496;13.456;2022-12-24T00:08:36;100023.63;;;4.69;100.00
25759;BME280;13604;52.496;13.456;2022-12-24T00:11:02;100019.38;;;4.68;100.00
25759;BME280;13604;52.496;13.456;2022-12-24T00:13:27;100028.97;;;4.64;100.00
25759;BME280;13604;52.496;13.456;2022-12-24T00:15:52;100023.16;;;4.61;100.00
25759;BME280;13604;52.496;13.456;2022-12-24T00:18:18;100020.59;;;4.61;100.00
25759;BME280;13604;52.496;13.456;2022-12-24T00:20:47;100027.25;;;4.65;100.00
25759;BME280;13604;52.496;13.456;2022-12-24T00:23:12;100016.41;;;4.58;100.00
25759;BME280;13604;52.496;13.456;2022-12-24T00:25:38;100009.63;;;4.56;100.00
25759;BME280;13604;52.496;13.456;2022-12-24T00:28:03;100006.16;;;4.57;100.00
25759;BME280;13604;52.496;13.456;2022-12-24T00:30:28;100020.50;;;4.62;100.00
25759;BME280;13604;52.496;13.456;2022-12-24T00:32:54;100020.03;;;4.54;100.00
25759;BME280;13604;52.496;13.456;2022-12-24T00:35:19;100019.03;;;4.57;100.00
25759;BME280;13604;52.496;13.456;2022-12-24T00:37:46;100024.28;;;4.55;100.00
25759;BME280;13604;52.496;13.456;2022-12-24T00:40:12;100024.19;;;4.57;100.00
25759;BME280;13604;52.496;13.456;2022-12-24T00:42:38;100021.56;;;4.58;100.00
25759;BME280;13604;52.496;13.456;2022-12-24T00:45:03;100022.47;;;4.57;100.00
25759;BME280;13604;52.496;13.456;2022-12-24T00:47:29;100027.63;;;4.57;100.00
25759;BME280;13604;52.496;13.456;2022-12-24T00:49:54;100036.19;;;4.58;100.00
25759;BME280;13604;52.496;13.456;2022-12-24T00:52:19;100036.97;;;4.60;100.00
25759;BME280;13604;52.496;13.456;2022-12-24T00:54:44;100034.31;;;4.61;100.00
25759;BME280;13604;52.496;13.456;2022-12-24T00:57:10;100041.06;;;4.64;100.00
25759;BME280;13604;52.496;13.456;2022-12-24T00:59:35;100044.31;;;4.67;100.00
25759;BME280;13604;52.496;13.456;2022-12-24T01:02:01;100034.31;;;4.61;100.00
25759;BME280;13604;52.496;13.456;2022-12-24T01:04:26;100046.00;;;4.68;100.00
25759;BME280;13604;52.496;13.456;2022-12-24T01:07:10;100045.09;;;4.69;100.00
25759;BME280;13604;52.496;13.456;2022-12-24T01:09:35;100056.16;;;4.71;100.00
25759;BME280;13604;52.496;13.456;2022-12-24T01:12:00;100057.66;;;4.75;100.00
25759;BME280;13604;52.496;13.456;2022-12-24T01:14:26;100057.00;;;4.72;100.00
25759;BME280;13604;52.496;13.456;2022-12-24T01:16:51;100057.16;;;4.69;100.00
25759;BME280;13604;52.496;13.456;2022-12-24T01:19:16;100057.06;;;4.70;100.00
25759;BME280;13604;52.496;13.456;2022-12-24T01:21:42;100061.25;;;4.73;100.00
25759;BME280;13604;52.496;13.456;2022-12-24T01:24:13;100062.16;;;4.72;100.00
25759;BME280;13604;52.496;13.456;2022-12-24T01:26:38;100063.75;;;4.74;100.00
25759;BME280;13604;52.496;13.456;2022-12-24T01:29:04;100069.00;;;4.73;100.00
25759;BME280;13604;52.496;13.456;2022-12-24T01:31:29;100063.84;;;4.73;100.00
25759;BME280;13604;52.496;13.456;2022-12-24T01:33:54;100065.66;;;4.71;100.00
25759;BME280;13604;52.496;13.456;2022-12-24T01:36:20;100059.59;;;4.72;100.00
25759;BME280;13604;52.496;13.456;2022-12-24T01:38:45;100063.84;;;4.73;100.00
25759;BME280;13604;52.496;13.456;2022-12-24T01:41:18;100069.06;;;4.71;100.00
25759;BME280;13604;52.496;13.456;2022-12-24T01:44:37;100067.47;;;4.69;100.00
25759;BME280;13604;52.496;13.456;2022-12-24T01:47:11;100059.78;;;4.67;100.00
25759;BME280;13604;52.496;13.456;2022-12-24T01:49:44;100079.16;;;4.76;100.00
25759;BME280;13604;52.496;13.456;2022-12-24T01:52:20;100083.56;;;4.74;100.00
25759;BME280;13604;52.496;13.456;2022-12-24T01:54:50;100079.97;;;4.76;100.00
25759;BME280;13604;52.496;13.456;2022-12-24T01:57:46;100083.56;;;4.74;100.00
25759;BME280;13604;52.496;13.456;2022-12-24T02:00:14;100095.31;;;4.80;100.00
25759;BME280;13604;52.496;13.456;2022-12-24T02:02:43;100093.50;;;4.82;100.00
25759;BME280;13604;52.496;13.456;2022-12-24T02:05:14;100092.88;;;4.76;100.00
25759;BME280;13604;52.496;13.456;2022-12-24T02:07:41;100097.00;;;4.81;100.00
25759;BME280;13604;52.496;13.456;2022-12-24T02:10:08;100103.88;;;4.80;100.00
25759;BME280;13604;52.496;13.456;2022-12-24T02:12:34;100106.47;;;4.80;100.00
25759;BME280;13604;52.496;13.456;2022-12-24T02:15:01;100117.63;;;4.81;100.00
25759;BME280;13604;52.496;13.456;2022-12-24T02:17:31;100108.16;;;4.81;100.00
25759;BME280;13604;52.496;13.456;2022-12-24T02:20:35;100116.47;;;4.86;100.00
25759;BME280;13604;52.496;13.456;2022-12-24T02:26:17;100129.63;;;4.82;100.00
25759;BME280;13604;52.496;13.456;2022-12-24T02:31:28;100143.94;;;4.87;100.00
25759;BME280;13604;52.496;13.456;2022-12-24T02:34:03;100147.59;;;4.83;100.00
25759;BME280;13604;52.496;13.456;2022-12-24T02:36:34;100145.78;;;4.85;100.00
25759;BME280;13604;52.496;13.456;2022-12-24T02:39:10;100148.50;;;4.82;100.00
25759;BME280;13604;52.496;13.456;2022-12-24T02:41:40;100146.00;;;4.81;100.00
25759;BME280;13604;52.496;13.456;2022-12-24T02:44:27;100157.75;;;4.86;100.00
25759;BME280;13604;52.496;13.456;2022-12-24T02:46:55;100159.38;;;4.89;100.00
25759;BME280;13604;52.496;13.456;2022-12-24T02:49:21;100158.53;;;4.88;100.00
25759;BME280;13604;52.496;13.456;2022-12-24T02:51:47;100166.13;;;4.91;100.00
25759;BME280;13604;52.496;13.456;2022-12-24T02:54:12;100162.13;;;4.86;100.00
25759;BME280;13604;52.496;13.456;2022-12-24T03:02:26;100176.59;;;4.88;100.00
25759;BME280;13604;52.496;13.456;2022-12-24T03:08:07;100170.06;;;4.81;100.00
25759;BME280;13604;52.496;13.456;2022-12-24T03:10:40;100176.59;;;4.88;100.00
25759;BME280;13604;52.496;13.456;2022-12-24T03:13:15;100183.78;;;4.82;100.00
25759;BME280;13604;52.496;13.456;2022-12-24T03:15:42;100179.47;;;4.82;100.00
25759;BME280;13604;52.496;13.456;2022-12-24T03:18:11;100187.34;;;4.79;100.00
25759;BME280;13604;52.496;13.456;2022-12-24T03:20:41;100188.94;;;4.82;100.00
25759;BME280;13604;52.496;13.456;2022-12-24T03:23:07;100186.78;;;4.91;100.00
25759;BME280;13604;52.496;13.456;2022-12-24T03:25:34;100193.97;;;4.85;100.00
25759;BME280;13604;52.496;13.456;2022-12-24T03:28:04;100205.41;;;4.79;100.00
25759;BME280;13604;52.496;13.456;2022-12-24T03:30:30;100197.88;;;4.74;100.00
25759;BME280;13604;52.496;13.456;2022-12-24T03:32:55;100193.81;;;4.69;100.00
25759;BME280;13604;52.496;13.456;2022-12-24T03:35:21;100205.63;;;4.74;100.00
25759;BME280;13604;52.496;13.456;2022-12-24T03:37:46;100207.25;;;4.75;100.00
25759;BME280;13604;52.496;13.456;2022-12-24T03:40:11;100209.16;;;4.72;100.00
25759;BME280;13604;52.496;13.456;2022-12-24T03:42:37;100213.56;;;4.70;100.00
25759;BME280;13604;52.496;13.456;2022-12-24T03:45:02;100221.09;;;4.74;100.00
25759;BME280;13604;52.496;13.456;2022-12-24T03:47:28;100220.38;;;4.71;100.00
25759;BME280;13604;52.496;13.456;2022-12-24T03:49:54;100227.91;;;4.75;100.00
25759;BME280;13604;52.496;13.456;2022-12-24T03:52:20;100224.47;;;4.75;100.00
25759;BME280;13604;52.496;13.456;2022-12-24T03:54:45;100234.81;;;4.75;100.00
25759;BME280;13604;52.496;13.456;2022-12-24T03:57:10;100243.53;;;4.72;100.00
25759;BME280;13604;52.496;13.456;2022-12-24T03:59:35;100249.25;;;4.79;100.00
25759;BME280;13604;52.496;13.456;2022-12-24T04:02:01;100243.38;;;4.75;100.00
25759;BME280;13604;52.496;13.456;2022-12-24T04:04:26;100247.63;;;4.76;100.00
25759;BME280;13604;52.496;13.456;2022-12-24T04:06:51;100249.31;;;4.78;100.00
25759;BME280;13604;52.496;13.456;2022-12-24T04:09:17;100245.22;;;4.73;100.00
25759;BME280;13604;52.496;13.456;2022-12-24T04:11:42;100257.34;;;4.71;100.00
25759;BME280;13604;52.496;13.456;2022-12-24T04:14:07;100254.81;;;4.70;100.00
25759;BME280;13604;52.496;13.456;2022-12-24T04:16:33;100250.22;;;4.76;100.00
25759;BME280;13604;52.496;13.456;2022-12-24T04:18:58;100242.34;;;4.80;100.00
25759;BME280;13604;52.496;13.456;2022-12-24T04:21:23;100234.59;;;4.80;100.00
25759;BME280;13604;52.496;13.456;2022-12-24T04:23:49;100238.16;;;4.77;100.00
25759;BME280;13604;52.496;13.456;2022-12-24T04:26:14;100250.91;;;4.80;100.00
25759;BME280;13604;52.496;13.456;2022-12-24T04:28:41;100241.56;;;4.78;100.00
25759;BME280;13604;52.496;13.456;2022-12-24T04:31:08;100253.78;;;4.74;100.00
25759;BME280;13604;52.496;13.456;2022-12-24T04:33:34;100262.28;;;4.76;100.00
25759;BME280;13604;52.496;13.456;2022-12-24T04:36:01;100273.50;;;4.75;100.00
25759;BME280;13604;52.496;13.456;2022-12-24T04:38:28;100273.66;;;4.72;100.00
25759;BME280;13604;52.496;13.456;2022-12-24T04:41:07;100284.59;;;4.77;100.00
25759;BME280;13604;52.496;13.456;2022-12-24T04:43:33;100288.00;;;4.78;100.00
25759;BME280;13604;52.496;13.456;2022-12-24T04:46:13;100300.78;;;4.81;100.00
25759;BME280;13604;52.496;13.456;2022-12-24T04:48:42;100295.69;;;4.79;100.00
25759;BME280;13604;52.496;13.456;2022-12-24T04:51:08;100310.91;;;4.85;100.00
25759;BME280;13604;52.496;13.456;2022-12-24T04:53:34;100316.91;;;4.86;100.00
25759;BME280;13604;52.496;13.456;2022-12-24T04:56:00;100304.19;;;4.81;100.00
25759;BME280;13604;52.496;13.456;2022-12-24T04:58:26;100303.34;;;4.81;100.00
25759;BME280;13604;52.496;13.456;2022-12-24T05:00:51;100300.00;;;4.79;100.00
25759;BME280;13604;52.496;13.456;2022-12-24T05:03:16;100307.66;;;4.80;100.00
25759;BME280;13604;52.496;13.456;2022-12-24T05:05:42;100314.44;;;4.83;100.00
25759;BME280;13604;52.496;13.456;2022-12-24T05:08:07;100308.91;;;4.71;100.00
25759;BME280;13604;52.496;13.456;2022-12-24T05:10:32;100313.19;;;4.72;100.00
25759;BME280;13604;52.496;13.456;2022-12-24T05:12:57;100319.72;;;4.80;100.00
25759;BME280;13604;52.496;13.456;2022-12-24T05:15:23;100323.16;;;4.80;100.00
25759;BME280;13604;52.496;13.456;2022-12-24T05:17:48;100317.88;;;4.83;100.00
25759;BME280;13604;52.496;13.456;2022-12-24T05:20:14;100322.25;;;4.81;100.00
25759;BME280;13604;52.496;13.456;2022-12-24T05:22:40;100311.38;;;4.74;100.00
25759;BME280;13604;52.496;13.456;2022-12-24T05:25:25;100312.19;;;4.75;100.00
25759;BME280;13604;52.496;13.456;2022-12-24T05:28:10;100314.00;;;4.73;100.00
25759;BME280;13604;52.496;13.456;2022-12-24T05:30:35;100326.75;;;4.76;100.00
25759;BME280;13604;52.496;13.456;2022-12-24T05:33:00;100321.75;;;4.73;100.00
25759;BME280;13604;52.496;13.456;2022-12-24T05:35:25;100307.03;;;4.75;100.00
25759;BME280;13604;52.496;13.456;2022-12-24T05:37:51;100313.84;;;4.76;100.00
25759;BME280;13604;52.496;13.456;2022-12-24T05:40:16;100314.75;;;4.75;100.00
25759;BME280;13604;52.496;13.456;2022-12-24T05:42:42;100318.94;;;4.78;100.00
25759;BME280;13604;52.496;13.456;2022-12-24T05:45:07;100316.84;;;4.67;100.00
25759;BME280;13604;52.496;13.456;2022-12-24T05:47:33;100312.53;;;4.67;100.00
25759;BME280;13604;52.496;13.456;2022-12-24T05:49:58;100328.72;;;4.71;100.00
25759;BME280;13604;52.496;13.456;2022-12-24T05:52:23;100340.72;;;4.72;100.00
25759;BME280;13604;52.496;13.456;2022-12-24T05:54:49;100339.28;;;4.65;100.00
25759;BME280;13604;52.496;13.456;2022-12-24T05:57:15;100341.78;;;4.66;100.00
25759;BME280;13604;52.496;13.456;2022-12-24T05:59:40;100338.25;;;4.69;100.00
25759;BME280;13604;52.496;13.456;2022-12-24T06:02:05;100344.19;;;4.71;100.00
25759;BME280;13604;52.496;13.456;2022-12-24T06:04:30;100353.72;;;4.69;100.00
25759;BME280;13604;52.496;13.456;2022-12-24T06:06:56;100353.66;;;4.70;100.00
25759;BME280;13604;52.496;13.456;2022-12-24T06:09:21;100344.59;;;4.62;100.00
25759;BME280;13604;52.496;13.456;2022-12-24T06:11:46;100356.59;;;4.63;100.00
25759;BME280;13604;52.496;13.456;2022-12-24T06:14:12;100357.22;;;4.68;100.00
25759;BME280;13604;52.496;13.456;2022-12-24T06:16:37;100363.22;;;4.68;100.00
25759;BME280;13604;52.496;13.456;2022-12-24T06:19:02;100363.25;;;4.67;100.00
25759;BME280;13604;52.496;13.456;2022-12-24T06:21:28;100359.22;;;4.61;100.00
25759;BME280;13604;52.496;13.456;2022-12-24T06:23:53;100367.09;;;4.58;100.00
25759;BME280;13604;52.496;13.456;2022-12-24T06:26:20;100370.63;;;4.56;100.00
25759;BME280;13604;52.496;13.456;2022-12-24T06:28:46;100370.91;;;4.50;100.00
25759;BME280;13604;52.496;13.456;2022-12-24T06:31:15;100376.84;;;4.52;100.00
25759;BME280;13604;52.496;13.456;2022-12-24T06:33:41;100377.53;;;4.55;100.00
25759;BME280;13604;52.496;13.456;2022-12-24T06:36:08;100385.47;;;4.51;100.00
25759;BME280;13604;52.496;13.456;2022-12-24T06:38:34;100384.09;;;4.42;100.00
25759;BME280;13604;52.496;13.456;2022-12-24T06:41:04;100401.72;;;4.53;100.00
25759;BME280;13604;52.496;13.456;2022-12-24T06:43:30;100405.09;;;4.53;100.00
25759;BME280;13604;52.496;13.456;2022-12-24T06:45:55;100404.47;;;4.48;100.00
25759;BME280;13604;52.496;13.456;2022-12-24T06:48:21;100408.91;;;4.45;100.00
25759;BME280;13604;52.496;13.456;2022-12-24T06:50:46;100411.31;;;4.49;100.00
25759;BME280;13604;52.496;13.456;2022-12-24T06:53:11;100402.69;;;4.50;100.00
25759;BME280;13604;52.496;13.456;2022-12-24T06:55:37;100409.56;;;4.50;100.00
25759;BME280;13604;52.496;13.456;2022-12-24T06:58:03;100408.13;;;4.43;100.00
25759;BME280;13604;52.496;13.456;2022-12-24T07:00:28;100414.06;;;4.45;100.00
25759;BME280;13604;52.496;13.456;2022-12-24T07:02:53;100415.88;;;4.43;100.00
25759;BME280;13604;52.496;13.456;2022-12-24T07:05:19;100416.97;;;4.37;100.00
25759;BME280;13604;52.496;13.456;2022-12-24T07:07:44;100415.88;;;4.43;100.00
25759;BME280;13604;52.496;13.456;2022-12-24T07:10:11;100430.50;;;4.42;100.00
25759;BME280;13604;52.496;13.456;2022-12-24T07:12:37;100426.31;;;4.39;100.00
25759;BME280;13604;52.496;13.456;2022-12-24T07:15:03;100429.97;;;4.34;100.00
25759;BME280;13604;52.496;13.456;2022-12-24T07:17:28;100453.91;;;4.37;100.00
25759;BME280;13604;52.496;13.456;2022-12-24T07:19:53;100447.78;;;4.40;100.00
25759;BME280;13604;52.496;13.456;2022-12-24T07:22:19;100439.16;;;4.41;100.00
25759;BME280;13604;52.496;13.456;2022-12-24T07:24:44;100449.47;;;4.41;100.00
25759;BME280;13604;52.496;13.456;2022-12-24T07:27:09;100452.34;;;4.33;100.00
25759;BME280;13604;52.496;13.456;2022-12-24T07:29:35;100467.50;;;4.41;100.00
25759;BME280;13604;52.496;13.456;2022-12-24T07:32:00;100474.41;;;4.41;100.00
25759;BME280;13604;52.496;13.456;2022-12-24T07:34:25;100474.97;;;4.47;100.00
25759;BME280;13604;52.496;13.456;2022-12-24T07:36:51;100474.81;;;4.52;100.00
25759;BME280;13604;52.496;13.456;2022-12-24T07:39:16;100472.47;;;4.46;100.00
25759;BME280;13604;52.496;13.456;2022-12-24T07:41:41;100467.56;;;4.39;100.00
25759;BME280;13604;52.496;13.456;2022-12-24T07:44:11;100481.41;;;4.37;100.00
25759;BME280;13604;52.496;13.456;2022-12-24T07:46:37;100477.72;;;4.43;100.00
25759;BME280;13604;52.496;13.456;2022-12-24T07:49:02;100477.50;;;4.49;100.00
25759;BME280;13604;52.496;13.456;2022-12-24T07:51:27;100485.03;;;4.53;100.00
25759;BME280;13604;52.496;13.456;2022-12-24T07:53:53;100507.50;;;4.51;100.00
25759;BME280;13604;52.496;13.456;2022-12-24T07:56:18;100507.44;;;4.53;100.00
25759;BME280;13604;52.496;13.456;2022-12-24T07:58:43;100496.34;;;4.51;100.00
25759;BME280;13604;52.496;13.456;2022-12-24T08:01:09;100505.56;;;4.56;100.00
25759;BME280;13604;52.496;13.456;2022-12-24T08:03:34;100509.16;;;4.52;100.00
25759;BME280;13604;52.496;13.456;2022-12-24T08:06:00;100509.34;;;4.48;100.00
25759;BME280;13604;52.496;13.456;2022-12-24T08:08:25;100497.53;;;4.42;100.00
25759;BME280;13604;52.496;13.456;2022-12-24T08:10:51;100502.75;;;4.41;100.00
25759;BME280;13604;52.496;13.456;2022-12-24T08:13:16;100502.69;;;4.42;100.00
25759;BME280;13604;52.496;13.456;2022-12-24T08:15:42;100506.09;;;4.43;100.00
25759;BME280;13604;52.496;13.456;2022-12-24T08:18:09;100509.03;;;4.33;100.00
25759;BME280;13604;52.496;13.456;2022-12-24T08:20:37;100518.34;;;4.37;100.00
25759;BME280;13604;52.496;13.456;2022-12-24T08:23:03;100509.94;;;4.32;100.00
25759;BME280;13604;52.496;13.456;2022-12-24T08:25:28;100504.97;;;4.28;100.00
25759;BME280;13604;52.496;13.456;2022-12-24T08:27:53;100505.81;;;4.28;100.00
25759;BME280;13604;52.496;13.456;2022-12-24T08:30:18;100505.69;;;4.31;100.00
25759;BME280;13604;52.496;13.456;2022-12-24T08:32:44;100521.75;;;4.38;100.00
25759;BME280;13604;52.496;13.456;2022-12-24T08:35:09;100526.72;;;4.43;100.00
25759;BME280;13604;52.496;13.456;2022-12-24T08:37:34;100517.06;;;4.48;100.00
25759;BME280;13604;52.496;13.456;2022-12-24T08:40:00;100516.81;;;4.54;100.00
25759;BME280;13604;52.496;13.456;2022-12-24T08:42:25;100523.53;;;4.58;100.00
25759;BME280;13604;52.496;13.456;2022-12-24T08:44:50;100524.56;;;4.54;100.00
25759;BME280;13604;52.496;13.456;2022-12-24T08:47:16;100529.84;;;4.51;100.00
25759;BME280;13604;52.496;13.456;2022-12-24T08:49:41;100534.81;;;4.55;100.00
25759;BME280;13604;52.496;13.456;2022-12-24T08:52:06;100535.72;;;4.54;100.00
25759;BME280;13604;52.496;13.456;2022-12-24T08:54:31;100528.06;;;4.53;100.00
25759;BME280;13604;52.496;13.456;2022-12-24T08:56:58;100549.50;;;4.53;100.00
25759;BME280;13604;52.496;13.456;2022-12-24T08:59:23;100547.66;;;4.57;100.00
25759;BME280;13604;52.496;13.456;2022-12-24T09:01:49;100547.53;;;4.60;100.00
25759;BME280;13604;52.496;13.456;2022-12-24T09:04:14;100537.81;;;4.45;100.00
25759;BME280;13604;52.496;13.456;2022-12-24T09:06:39;100546.50;;;4.42;100.00
25759;BME280;13604;52.496;13.456;2022-12-24T09:09:05;100551.50;;;4.47;100.00
25759;BME280;13604;52.496;13.456;2022-12-24T09:11:33;100561.69;;;4.50;100.00
25759;BME280;13604;52.496;13.456;2022-12-24T09:13:58;100569.75;;;4.64;100.00
25759;BME280;13604;52.496;13.456;2022-12-24T09:16:23;100566.78;;;4.73;100.00
25759;BME280;13604;52.496;13.456;2022-12-24T09:18:49;100572.78;;;4.73;100.00
25759;BME280;13604;52.496;13.456;2022-12-24T09:21:15;100573.25;;;4.83;100.00
25759;BME280;13604;52.496;13.456;2022-12-24T09:23:42;100579.09;;;4.87;100.00
25759;BME280;13604;52.496;13.456;2022-12-24T09:26:11;100576.28;;;4.72;100.00
25759;BME280;13604;52.496;13.456;2022-12-24T09:28:37;100580.53;;;4.73;100.00
25759;BME280;13604;52.496;13.456;2022-12-24T09:31:04;100588.31;;;4.72;100.00
25759;BME280;13604;52.496;13.456;2022-12-24T09:33:33;100593.47;;;4.72;100.00
25759;BME280;13604;52.496;13.456;2022-12-24T09:35:59;100587.13;;;4.81;100.00
25759;BME280;13604;52.496;13.456;2022-12-24T09:38:25;100595.81;;;4.78;100.00
25759;BME280;13604;52.496;13.456;2022-12-24T09:40:51;100599.69;;;4.88;100.00
25759;BME280;13604;52.496;13.456;2022-12-24T09:43:20;100602.94;;;4.93;100.00
25759;BME280;13604;52.496;13.456;2022-12-24T09:48:38;100632.63;;;5.03;100.00
25759;BME280;13604;52.496;13.456;2022-12-24T09:51:09;100626.47;;;5.07;100.00
25759;BME280;13604;52.496;13.456;2022-12-24T09:53:50;100620.56;;;5.04;100.00
25759;BME280;13604;52.496;13.456;2022-12-24T09:56:21;100634.88;;;4.91;100.00
25759;BME280;13604;52.496;13.456;2022-12-24T09:58:53;100628.69;;;4.95;100.00
25759;BME280;13604;52.496;13.456;2022-12-24T10:01:20;100634.44;;;5.01;100.00
25759;BME280;13604;52.496;13.456;2022-12-24T10:03:45;100639.53;;;5.03;100.00
25759;BME280;13604;52.496;13.456;2022-12-24T10:06:20;100638.75;;;5.01;100.00
25759;BME280;13604;52.496;13.456;2022-12-24T10:09:07;100653.19;;;5.06;100.00
25759;BME280;13604;52.496;13.456;2022-12-24T10:11:45;100655.38;;;5.16;100.00
25759;BME280;13604;52.496;13.456;2022-12-24T10:22:59;100665.72;;;5.36;100.00
25759;BME280;13604;52.496;13.456;2022-12-24T10:25:33;100662.00;;;5.43;100.00
25759;BME280;13604;52.496;13.456;2022-12-24T10:28:04;100657.38;;;5.51;100.00
25759;BME280;13604;52.496;13.456;2022-12-24T10:30:33;100649.09;;;5.63;100.00
25759;BME280;13604;52.496;13.456;2022-12-24T10:32:59;100643.59;;;5.71;100.00
25759;BME280;13604;52.496;13.456;2022-12-24T10:35:28;100665.44;;;5.84;100.00
25759;BME280;13604;52.496;13.456;2022-12-24T10:37:56;100667.78;;;5.90;100.00
25759;BME280;13604;52.496;13.456;2022-12-24T10:42:52;100673.59;;;5.95;100.00
25759;BME280;13604;52.496;13.456;2022-12-24T10:45:23;100686.25;;;6.01;100.00
25759;BME280;13604;52.496;13.456;2022-12-24T10:47:54;100685.00;;;6.10;100.00
25759;BME280;13604;52.496;13.456;2022-12-24T10:50:30;100688.72;;;6.23;100.00
25759;BME280;13604;52.496;13.456;2022-12-24T10:53:04;100686.94;;;6.25;100.00
25759;BME280;13604;52.496;13.456;2022-12-24T10:55:31;100693.00;;;6.43;100.00
25759;BME280;13604;52.496;13.456;2022-12-24T10:58:04;100693.78;;;6.64;100.00
25759;BME280;13604;52.496;13.456;2022-12-24T11:00:32;100690.88;;;6.71;100.00
25759;BME280;13604;52.496;13.456;2022-12-24T11:05:36;100692.69;;;6.69;100.00
25759;BME280;13604;52.496;13.456;2022-12-24T11:08:25;100706.41;;;6.71;100.00
25759;BME280;13604;52.496;13.456;2022-12-24T11:11:19;100705.13;;;6.80;100.00
25759;BME280;13604;52.496;13.456;2022-12-24T11:13:51;100702.06;;;6.72;100.00
25759;BME280;13604;52.496;13.456;2022-12-24T11:16:28;100707.72;;;6.61;100.00
25759;BME280;13604;52.496;13.456;2022-12-24T11:18:57;100709.75;;;6.54;100.00
25759;BME280;13604;52.496;13.456;2022-12-24T11:21:44;100701.50;;;6.46;100.00
25759;BME280;13604;52.496;13.456;2022-12-24T11:24:20;100712.06;;;6.61;100.00
25759;BME280;13604;52.496;13.456;2022-12-24T11:26:48;100706.59;;;6.67;100.00
25759;BME280;13604;52.496;13.456;2022-12-24T11:29:22;100708.56;;;6.80;100.00
25759;BME280;13604;52.496;13.456;2022-12-24T11:31:48;100707.44;;;6.86;100.00
25759;BME280;13604;52.496;13.456;2022-12-24T11:34:22;100713.59;;;7.02;100.00
25759;BME280;13604;52.496;13.456;2022-12-24T11:36:49;100721.16;;;7.07;100.00
25759;BME280;13604;52.496;13.456;2022-12-24T11:39:23;100726.03;;;7.13;100.00
25759;BME280;13604;52.496;13.456;2022-12-24T11:41:50;100724.41;;;7.10;100.00
25759;BME280;13604;52.496;13.456;2022-12-24T11:44:25;100725.38;;;7.08;100.00
25759;BME280;13604;52.496;13.456;2022-12-24T11:46:51;100730.81;;;7.03;100.00
25759;BME280;13604;52.496;13.456;2022-12-24T11:49:30;100732.75;;;6.98;100.00
25759;BME280;13604;52.496;13.456;2022-12-24T11:55:01;100738.34;;;7.08;100.00
25759;BME280;13604;52.496;13.456;2022-12-24T11:57:38;100740.94;;;7.08;100.00
25759;BME280;13604;52.496;13.456;2022-12-24T12:00:09;100746.59;;;7.16;100.00
25759;BME280;13604;52.496;13.456;2022-12-24T12:02:41;100743.19;;;7.15;100.00
25759;BME280;13604;52.496;13.456;2022-12-24T12:05:20;100746.19;;;7.06;100.00
25759;BME280;13604;52.496;13.456;2022-12-24T12:07:50;100745.50;;;7.03;100.00
25759;BME280;13604;52.496;13.456;2022-12-24T12:10:26;100742.59;;;7.09;100.00
25759;BME280;13604;52.496;13.456;2022-12-24T12:13:02;100743.09;;;7.17;100.00
25759;BME280;13604;52.496;13.456;2022-12-24T12:15:32;100754.56;;;7.11;100.00
25759;BME280;13604;52.496;13.456;2022-12-24T12:18:07;100756.13;;;7.15;100.00
25759;BME280;13604;52.496;13.456;2022-12-24T12:20:37;100756.72;;;7.20;100.00
25759;BME280;13604;52.496;13.456;2022-12-24T12:23:25;100762.03;;;7.36;100.00
25759;BME280;13604;52.496;13.456;2022-12-24T12:26:17;100758.31;;;7.42;100.00
25759;BME280;13604;52.496;13.456;2022-12-24T12:28:49;100758.94;;;7.47;100.00
25759;BME280;13604;52.496;13.456;2022-12-24T12:31:26;100760.91;;;7.42;100.00
25759;BME280;13604;52.496;13.456;2022-12-24T12:33:57;100754.59;;;7.47;100.00
25759;BME280;13604;52.496;13.456;2022-12-24T12:36:29;100766.25;;;7.56;100.00
25759;BME280;13604;52.496;13.456;2022-12-24T12:38:56;100762.75;;;7.57;100.00
25759;BME280;13604;52.496;13.456;2022-12-24T12:41:54;100771.38;;;7.75;100.00
25759;BME280;13604;52.496;13.456;2022-12-24T12:47:34;100779.09;;;7.76;100.00
25759;BME280;13604;52.496;13.456;2022-12-24T12:50:15;100779.59;;;7.65;100.00
25759;BME280;13604;52.496;13.456;2022-12-24T12:52:56;100790.97;;;7.63;100.00
25759;BME280;13604;52.496;13.456;2022-12-24T12:55:41;100789.31;;;7.62;100.00
25759;BME280;13604;52.496;13.456;2022-12-24T12:59:03;100786.63;;;7.63;100.00
25759;BME280;13604;52.496;13.456;2022-12-24T13:01:17;100788.78;;;7.73;100.00
25759;BME280;13604;52.496;13.456;2022-12-24T13:06:38;100789.00;;;7.68;100.00
25759;BME280;13604;52.496;13.456;2022-12-24T13:12:01;100782.06;;;7.68;100.00
25759;BME280;13604;52.496;13.456;2022-12-24T13:20:35;100788.16;;;7.67;100.00
25759;BME280;13604;52.496;13.456;2022-12-24T13:23:10;100787.63;;;7.78;100.00
25759;BME280;13604;52.496;13.456;2022-12-24T13:25:44;100789.09;;;7.84;100.00
25759;BME280;13604;52.496;13.456;2022-12-24T13:28:36;100790.75;;;7.85;100.00
25759;BME280;13604;52.496;13.456;2022-12-24T13:33:59;100797.09;;;7.79;100.00
25759;BME280;13604;52.496;13.456;2022-12-24T13:37:00;100808.69;;;7.89;100.00
25759;BME280;13604;52.496;13.456;2022-12-24T13:39:27;100804.22;;;7.93;100.00
25759;BME280;13604;52.496;13.456;2022-12-24T13:41:52;100812.19;;;7.88;100.00